createdAt,value
2017-05-11T00:02:21.969Z,71.60
2017-05-11T00:04:51.010Z,71.80
2017-05-11T00:07:20.057Z,71.30
2017-05-11T00:09:49.099Z,71.80
2017-05-11T00:12:18.257Z,71.70
2017-05-11T00:14:48.065Z,72.10
2017-05-11T00:17:17.121Z,70.20
2017-05-11T00:19:46.267Z,69.70
2017-05-11T00:22:16.167Z,70.60
2017-05-11T00:24:45.202Z,71.30
2017-05-11T00:27:14.256Z,71.30
2017-05-11T00:29:43.365Z,71.20
2017-05-11T00:32:13.272Z,70.50
2017-05-11T00:34:42.374Z,71.50
2017-05-11T00:37:12.189Z,71.20
2017-05-11T00:39:41.998Z,71.00
2017-05-11T00:42:11.809Z,69.50
2017-05-11T00:44:41.589Z,70.00
2017-05-11T00:47:10.722Z,70.40
2017-05-11T00:49:40.536Z,71.10
2017-05-11T00:52:10.362Z,71.20
2017-05-11T00:54:40.257Z,70.70
2017-05-11T00:57:09.305Z,70.10
2017-05-11T00:59:38.453Z,69.80
2017-05-11T01:02:07.491Z,71.80
2017-05-11T01:04:36.653Z,70.90
2017-05-11T01:07:06.433Z,72.90
2017-05-11T01:09:35.481Z,73.00
2017-05-11T01:12:04.571Z,73.60
2017-05-11T01:14:34.464Z,74.60
2017-05-11T01:17:04.240Z,74.50
2017-05-11T01:19:33.293Z,75.40
2017-05-11T01:22:02.332Z,76.00
2017-05-11T01:24:31.466Z,75.60
2017-05-11T01:27:01.237Z,76.50
2017-05-11T01:29:30.285Z,76.60
2017-05-11T01:32:00.092Z,77.30
2017-05-11T01:34:29.877Z,77.10
2017-05-11T01:36:59.002Z,77.40
2017-05-11T01:39:28.796Z,77.40
2017-05-11T01:41:57.830Z,77.70
2017-05-11T01:44:26.882Z,76.90
2017-05-11T01:46:55.993Z,76.60
2017-05-11T01:49:25.805Z,76.40
2017-05-11T01:51:55.599Z,76.70
2017-05-11T01:54:24.729Z,76.70
2017-05-11T01:56:54.534Z,76.90
2017-05-11T01:59:24.338Z,77.00
2017-05-11T02:01:54.126Z,76.30
2017-05-11T02:04:23.169Z,77.00
2017-05-11T02:06:52.264Z,76.40
2017-05-11T02:09:21.352Z,77.20
2017-05-11T02:11:51.146Z,77.70
2017-05-11T02:14:20.225Z,78.10
2017-05-11T02:16:49.280Z,78.30
2017-05-11T02:19:18.337Z,78.60
2017-05-11T02:21:48.155Z,78.70
2017-05-11T02:24:17.210Z,78.60
2017-05-11T02:26:46.375Z,78.40
2017-05-11T02:29:15.436Z,78.50
2017-05-11T02:31:45.229Z,78.50
2017-05-11T02:34:14.286Z,78.30
2017-05-11T02:36:43.330Z,77.90
2017-05-11T02:39:12.464Z,76.50
2017-05-11T02:41:41.529Z,76.00
2017-05-11T02:44:11.342Z,76.00
2017-05-11T02:46:41.164Z,77.10
2017-05-11T02:49:10.966Z,78.20
2017-05-11T02:51:40.745Z,79.20
2017-05-11T02:54:09.813Z,78.90
2017-05-11T02:56:38.837Z,79.00
2017-05-11T02:59:07.964Z,78.50
2017-05-11T03:01:37.746Z,79.30
2017-05-11T03:04:06.883Z,79.20
2017-05-11T03:06:36.697Z,78.50
2017-05-11T03:09:06.507Z,79.00
2017-05-11T03:11:36.277Z,79.40
2017-05-11T03:14:05.420Z,79.80
2017-05-11T03:16:35.223Z,79.30
2017-05-11T03:19:05.018Z,79.10
2017-05-11T03:21:34.051Z,79.50
2017-05-11T03:24:03.123Z,80.00
2017-05-11T03:26:32.172Z,79.60
2017-05-11T03:29:01.313Z,79.00
2017-05-11T03:31:30.348Z,78.70
2017-05-11T03:33:59.409Z,78.30
2017-05-11T03:36:28.446Z,78.90
2017-05-11T03:38:57.617Z,79.10
2017-05-11T03:41:27.414Z,79.40
2017-05-11T03:43:57.202Z,79.40
2017-05-11T03:46:26.293Z,79.30
2017-05-11T03:48:55.419Z,78.20
2017-05-11T03:51:25.241Z,77.90
2017-05-11T03:53:55.048Z,78.70
2017-05-11T03:56:24.862Z,78.90
2017-05-11T03:58:54.685Z,79.20
2017-05-11T04:01:24.478Z,79.20
2017-05-11T04:03:54.293Z,79.60
2017-05-11T04:06:24.083Z,80.20
2017-05-11T04:08:53.150Z,79.30
2017-05-11T04:11:22.210Z,79.80
2017-05-11T04:13:52.014Z,79.60
2017-05-11T04:16:21.804Z,78.10
2017-05-11T04:18:50.931Z,78.10
2017-05-11T04:21:20.704Z,78.20
2017-05-11T04:23:49.823Z,78.60
2017-05-11T04:26:18.869Z,77.90
2017-05-11T04:28:48.020Z,78.60
2017-05-11T04:31:17.830Z,78.10
2017-05-11T04:33:47.621Z,78.80
2017-05-11T04:36:16.667Z,77.80
2017-05-11T04:38:45.729Z,78.40
2017-05-11T04:41:14.831Z,77.90
2017-05-11T04:43:43.886Z,76.80
2017-05-11T04:46:12.923Z,77.40
2017-05-11T04:48:42.732Z,77.30
2017-05-11T04:51:12.547Z,77.70
2017-05-11T04:53:42.359Z,77.50
2017-05-11T04:56:12.133Z,78.50
2017-05-11T04:58:41.185Z,77.70
2017-05-11T05:01:10.234Z,79.40
2017-05-11T05:03:39.371Z,77.20
2017-05-11T05:06:09.146Z,76.00
2017-05-11T05:08:38.214Z,73.90
2017-05-11T05:11:07.256Z,76.10
2017-05-11T05:13:36.309Z,75.60
2017-05-11T05:16:06.119Z,75.10
2017-05-11T05:18:35.909Z,75.10
2017-05-11T05:21:04.946Z,75.80
2017-05-11T05:23:33.998Z,75.60
2017-05-11T05:26:03.047Z,73.70
2017-05-11T05:28:32.208Z,76.10
2017-05-11T05:31:01.298Z,75.00
2017-05-11T05:33:30.416Z,75.30
2017-05-11T05:36:00.196Z,75.90
2017-05-11T05:38:29.261Z,74.70
2017-05-11T05:40:58.420Z,75.10
2017-05-11T05:43:28.317Z,74.90
2017-05-11T05:45:58.114Z,74.10
2017-05-11T05:48:27.246Z,74.30
2017-05-11T05:50:57.018Z,75.10
2017-05-11T05:53:26.065Z,74.40
2017-05-11T05:55:55.127Z,74.50
2017-05-11T05:58:24.253Z,72.20
2017-05-11T06:00:53.286Z,74.00
2017-05-11T06:03:22.432Z,72.50
2017-05-11T06:05:52.329Z,73.50
2017-05-11T06:08:21.435Z,72.90
2017-05-11T06:10:51.218Z,72.80
2017-05-11T06:13:20.343Z,71.50
2017-05-11T06:15:50.122Z,71.30
2017-05-11T06:18:19.186Z,72.00
2017-05-11T06:20:48.243Z,68.90
2017-05-11T06:23:18.052Z,67.90
2017-05-11T06:25:47.269Z,67.00
2017-05-11T06:28:17.079Z,66.30
2017-05-11T06:30:46.883Z,67.10
2017-05-11T06:33:15.950Z,68.50
2017-05-11T06:35:45.099Z,66.40
2017-05-11T06:38:14.156Z,66.00
2017-05-11T06:40:43.209Z,65.20
2017-05-11T06:43:12.372Z,63.90
2017-05-11T06:45:42.197Z,63.20
2017-05-11T06:48:11.241Z,62.50
2017-05-11T06:50:40.393Z,62.20
2017-05-11T06:53:10.191Z,60.10
2017-05-11T06:55:40.016Z,59.50
2017-05-11T06:58:09.822Z,59.60
2017-05-11T07:00:39.628Z,59.70
2017-05-11T07:03:09.489Z,59.80
2017-05-11T07:05:38.638Z,59.10
2017-05-11T07:08:08.446Z,59.10
2017-05-11T07:10:38.242Z,58.30
2017-05-11T07:13:07.358Z,58.40
2017-05-11T07:15:37.160Z,58.10
2017-05-11T07:18:06.281Z,57.80
2017-05-11T07:20:36.182Z,57.70
2017-05-11T07:23:05.279Z,58.00
2017-05-11T07:25:35.097Z,57.70
2017-05-11T07:28:04.883Z,57.70
2017-05-11T07:30:34.006Z,57.20
2017-05-11T07:33:03.929Z,57.00
2017-05-11T07:35:33.845Z,55.40
2017-05-11T07:38:02.900Z,56.20
2017-05-11T07:40:31.930Z,55.60
2017-05-11T07:43:00.969Z,55.10
2017-05-11T07:45:30.002Z,54.60
2017-05-11T07:47:59.810Z,54.20
2017-05-11T07:50:29.621Z,54.20
2017-05-11T07:52:59.426Z,54.90
2017-05-11T07:55:28.624Z,54.60
2017-05-11T07:57:57.730Z,55.70
2017-05-11T08:00:27.537Z,54.20
2017-05-11T08:02:57.350Z,55.30
2017-05-11T08:05:26.450Z,53.50
2017-05-11T08:07:56.249Z,53.60
2017-05-11T08:10:25.356Z,52.40
2017-05-11T08:12:55.148Z,53.40
2017-05-11T08:15:24.270Z,54.10
2017-05-11T08:17:54.086Z,53.40
2017-05-11T08:20:23.875Z,53.90
2017-05-11T08:22:52.958Z,53.50
2017-05-11T08:25:22.006Z,53.10
2017-05-11T08:27:51.078Z,52.40
2017-05-11T08:30:20.895Z,50.60
2017-05-11T08:32:50.701Z,51.10
2017-05-11T08:35:20.514Z,50.70
2017-05-11T08:37:49.614Z,51.20
2017-05-11T08:40:19.418Z,51.20
2017-05-11T08:42:48.518Z,51.50
2017-05-11T08:45:18.314Z,51.40
2017-05-11T08:47:47.387Z,50.70
2017-05-11T08:50:16.535Z,49.50
2017-05-11T08:52:46.304Z,49.10
2017-05-11T08:55:15.342Z,49.00
2017-05-11T08:57:45.138Z,48.50
2017-05-11T09:00:14.241Z,48.80
2017-05-11T09:02:43.297Z,48.50
2017-05-11T09:05:12.342Z,47.70
2017-05-11T09:07:41.393Z,48.10
2017-05-11T09:10:10.445Z,48.40
2017-05-11T09:12:39.549Z,48.10
2017-05-11T09:15:09.334Z,47.00
2017-05-11T09:17:38.463Z,48.00
2017-05-11T09:20:08.243Z,47.00
2017-05-11T09:22:37.285Z,47.80
2017-05-11T09:25:06.370Z,47.30
2017-05-11T09:27:36.276Z,47.30
2017-05-11T09:30:06.057Z,48.20
2017-05-11T09:32:35.197Z,48.20
2017-05-11T09:35:05.011Z,47.10
2017-05-11T09:37:34.925Z,47.80
2017-05-11T09:40:04.830Z,46.80
2017-05-11T09:42:34.646Z,47.20
2017-05-11T09:45:03.707Z,47.80
2017-05-11T09:47:32.749Z,46.40
2017-05-11T09:50:01.797Z,46.40
2017-05-11T09:52:30.834Z,46.70
2017-05-11T09:55:00.746Z,45.50
2017-05-11T09:57:30.561Z,46.20
2017-05-11T10:00:00.458Z,46.30
2017-05-11T10:02:29.491Z,48.00
2017-05-11T10:04:58.549Z,45.60
2017-05-11T10:07:27.650Z,46.80
2017-05-11T10:09:56.713Z,45.00
2017-05-11T10:12:26.498Z,44.80
2017-05-11T10:14:55.559Z,45.60
2017-05-11T10:17:24.600Z,44.70
2017-05-11T10:19:53.701Z,45.50
2017-05-11T10:22:23.509Z,45.80
2017-05-11T10:24:52.578Z,43.70
2017-05-11T10:27:21.621Z,44.60
2017-05-11T10:29:50.667Z,45.50
2017-05-11T10:32:19.718Z,45.30
2017-05-11T10:34:48.795Z,45.20
2017-05-11T10:37:18.619Z,45.10
2017-05-11T10:39:47.667Z,43.60
2017-05-11T10:42:16.721Z,45.30
2017-05-11T10:44:45.781Z,45.50
2017-05-11T10:47:15.602Z,44.70
2017-05-11T10:49:45.425Z,46.30
2017-05-11T10:52:14.498Z,45.20
2017-05-11T10:54:43.539Z,45.30
2017-05-11T10:57:12.599Z,44.20
2017-05-11T10:59:42.410Z,44.90
2017-05-11T11:02:12.222Z,43.60
2017-05-11T11:04:42.035Z,42.40
2017-05-11T11:07:11.077Z,43.70
2017-05-11T11:09:40.987Z,44.40
2017-05-11T11:12:10.786Z,46.30
2017-05-11T11:14:39.890Z,44.70
2017-05-11T11:17:09.702Z,43.70
2017-05-11T11:19:39.530Z,43.60
2017-05-11T11:22:09.332Z,44.60
2017-05-11T11:24:39.143Z,41.40
2017-05-11T11:27:08.955Z,42.30
2017-05-11T11:29:38.755Z,42.00
2017-05-11T11:32:07.862Z,43.20
2017-05-11T11:34:37.678Z,41.90
2017-05-11T11:37:07.508Z,40.90
2017-05-11T11:39:36.581Z,40.90
2017-05-11T11:42:06.378Z,42.60
2017-05-11T11:44:35.436Z,42.30
2017-05-11T11:47:04.486Z,41.30
2017-05-11T11:49:34.297Z,40.50
2017-05-11T11:52:03.342Z,41.40
2017-05-11T11:54:32.418Z,40.90
2017-05-11T11:57:01.467Z,40.00
2017-05-11T11:59:30.529Z,39.00
2017-05-11T12:01:59.582Z,40.60
2017-05-11T12:04:29.411Z,38.80
2017-05-11T12:06:58.531Z,37.20
2017-05-11T12:09:28.366Z,36.10
2017-05-11T12:11:57.414Z,35.50
2017-05-11T12:14:26.473Z,32.90
2017-05-11T12:16:55.509Z,31.40
2017-05-11T12:19:24.639Z,29.20
2017-05-11T12:21:54.437Z,28.50
2017-05-11T12:24:24.249Z,27.60
2017-05-11T12:26:54.035Z,26.70
2017-05-11T12:29:23.171Z,25.20
2017-05-11T12:31:52.982Z,24.30
2017-05-11T12:34:22.069Z,23.10
2017-05-11T12:36:51.122Z,21.30
2017-05-11T12:39:20.850Z,21.20
2017-05-11T12:41:49.927Z,20.70
2017-05-11T12:44:18.958Z,21.40
2017-05-11T12:46:48.087Z,21.80
2017-05-11T12:49:17.129Z,20.80
2017-05-11T12:51:46.219Z,20.10
2017-05-11T12:54:15.348Z,21.40
2017-05-11T12:56:45.162Z,20.90
2017-05-11T12:59:14.967Z,20.70
2017-05-11T13:01:44.032Z,20.60
2017-05-11T13:04:13.165Z,20.70
2017-05-11T13:06:41.542Z,20.70
2017-05-11T13:09:10.592Z,20.30
2017-05-11T13:11:39.652Z,20.60
2017-05-11T13:14:08.706Z,20.30
2017-05-11T13:16:37.872Z,21.10
2017-05-11T13:19:06.963Z,22.20
2017-05-11T13:21:36.740Z,23.70
2017-05-11T13:24:05.856Z,24.80
2017-05-11T13:26:35.677Z,25.50
2017-05-11T13:29:05.479Z,22.90
2017-05-11T13:31:35.265Z,21.10
2017-05-11T13:34:04.397Z,21.30
2017-05-11T13:36:34.202Z,20.00
2017-05-11T13:39:04.001Z,18.20
2017-05-11T13:41:33.125Z,19.00
2017-05-11T13:44:02.209Z,19.20
2017-05-11T13:46:32.034Z,18.20
2017-05-11T13:49:01.835Z,18.90
2017-05-11T13:51:31.621Z,18.40
2017-05-11T13:54:00.745Z,18.50
2017-05-11T13:56:30.570Z,19.20
2017-05-11T13:59:00.364Z,18.80
2017-05-11T14:01:29.412Z,18.90
2017-05-11T14:03:58.470Z,19.10
2017-05-11T14:06:27.538Z,18.40
2017-05-11T14:08:56.602Z,19.70
2017-05-11T14:11:25.637Z,18.80
2017-05-11T14:13:54.738Z,19.30
2017-05-11T14:16:24.562Z,19.40
2017-05-11T14:18:54.359Z,20.40
2017-05-11T14:21:23.478Z,18.90
2017-05-11T14:23:53.279Z,19.30
2017-05-11T14:26:23.069Z,20.60
2017-05-11T14:28:52.203Z,19.80
2017-05-11T14:31:22.101Z,19.60
2017-05-11T14:33:51.886Z,20.20
2017-05-11T14:36:21.017Z,18.90
2017-05-11T14:38:50.818Z,18.40
2017-05-11T14:41:20.633Z,19.30
2017-05-11T14:43:50.558Z,18.80
2017-05-11T14:46:19.740Z,18.70
2017-05-11T14:48:48.774Z,18.40
2017-05-11T14:51:17.830Z,18.50
2017-05-11T14:53:46.872Z,20.10
2017-05-11T14:56:16.044Z,19.80
2017-05-11T14:58:45.857Z,20.20
2017-05-11T15:01:15.649Z,19.90
2017-05-11T15:03:44.795Z,20.10
2017-05-11T15:06:13.945Z,19.90
2017-05-11T15:08:43.742Z,19.70
2017-05-11T15:11:13.517Z,19.50
2017-05-11T15:13:42.562Z,20.00
2017-05-11T15:16:11.761Z,19.40
2017-05-11T15:18:40.857Z,19.30
2017-05-11T15:21:10.685Z,20.90
2017-05-11T15:23:40.483Z,19.80
2017-05-11T15:26:09.519Z,19.50
2017-05-11T15:28:38.676Z,19.70
2017-05-11T15:31:08.477Z,19.90
2017-05-11T15:33:37.530Z,21.20
2017-05-11T15:36:06.578Z,21.50
2017-05-11T15:38:35.694Z,21.00
2017-05-11T15:41:05.470Z,20.90
2017-05-11T15:43:34.547Z,20.70
2017-05-11T15:46:03.606Z,20.90
2017-05-11T15:48:32.687Z,20.80
2017-05-11T15:51:02.505Z,20.80
2017-05-11T15:53:32.406Z,21.10
2017-05-11T15:56:02.222Z,21.30
2017-05-11T15:58:32.023Z,20.40
2017-05-11T16:01:01.126Z,21.50
2017-05-11T16:03:30.945Z,23.20
2017-05-11T16:06:00.761Z,21.00
2017-05-11T16:08:30.574Z,21.00
2017-05-11T16:11:00.369Z,20.90
2017-05-11T16:13:29.398Z,21.70
2017-05-11T16:15:58.492Z,20.90
2017-05-11T16:18:27.539Z,21.60
2017-05-11T16:20:56.641Z,22.00
2017-05-11T16:23:25.742Z,21.50
2017-05-11T16:25:55.533Z,21.40
2017-05-11T16:28:24.653Z,21.10
2017-05-11T16:30:54.174Z,21.00
2017-05-11T16:33:23.949Z,21.80
2017-05-11T16:35:53.063Z,21.40
2017-05-11T16:38:22.162Z,21.50
2017-05-11T16:40:51.253Z,22.70
2017-05-11T16:43:20.287Z,22.20
2017-05-11T16:45:49.358Z,21.90
2017-05-11T16:48:19.142Z,21.70
2017-05-11T16:50:48.174Z,22.00
2017-05-11T16:53:17.244Z,22.60
2017-05-11T16:55:46.287Z,23.10
2017-05-11T16:58:15.333Z,23.20
2017-05-11T17:00:44.432Z,23.20
2017-05-11T17:03:14.245Z,23.90
2017-05-11T17:05:44.045Z,24.70
2017-05-11T17:08:13.147Z,24.30
2017-05-11T17:10:42.954Z,25.30
2017-05-11T17:13:12.073Z,24.70
2017-05-11T17:15:41.864Z,25.30
2017-05-11T17:18:10.922Z,25.80
2017-05-11T17:20:39.961Z,24.90
2017-05-11T17:23:09.772Z,25.00
2017-05-11T17:25:38.879Z,25.40
2017-05-11T17:28:08.786Z,25.70
2017-05-11T17:30:38.591Z,26.20
2017-05-11T17:33:07.660Z,25.90
2017-05-11T17:35:36.791Z,26.70
2017-05-11T17:38:06.563Z,27.20
2017-05-11T17:40:35.622Z,26.40
2017-05-11T17:43:04.695Z,26.70
2017-05-11T17:45:34.494Z,27.20
2017-05-11T17:48:03.628Z,28.60
2017-05-11T17:50:32.701Z,28.50
2017-05-11T17:53:02.501Z,28.50
2017-05-11T17:55:31.615Z,28.70
2017-05-11T17:58:01.418Z,29.40
2017-05-11T18:00:31.207Z,30.90
2017-05-11T18:03:00.336Z,30.50
2017-05-11T18:05:30.126Z,31.80
2017-05-11T18:07:59.175Z,31.80
2017-05-11T18:10:28.333Z,33.10
2017-05-11T18:12:58.107Z,32.70
2017-05-11T18:15:27.246Z,33.20
2017-05-11T18:17:57.046Z,33.90
2017-05-11T18:20:26.094Z,35.00
2017-05-11T18:22:55.242Z,35.40
2017-05-11T18:25:24.272Z,37.00
2017-05-11T18:27:53.332Z,37.00
2017-05-11T18:30:23.112Z,37.30
2017-05-11T18:32:52.255Z,38.10
2017-05-11T18:35:22.025Z,39.20
2017-05-11T18:37:51.077Z,40.10
2017-05-11T18:40:20.113Z,41.70
2017-05-11T18:42:49.921Z,42.10
2017-05-11T18:45:19.702Z,43.00
2017-05-11T18:47:48.813Z,43.80
2017-05-11T18:50:17.910Z,43.70
2017-05-11T18:52:47.727Z,44.70
2017-05-11T18:55:16.830Z,45.30
2017-05-11T18:57:46.623Z,46.00
2017-05-11T19:00:15.672Z,46.10
2017-05-11T19:02:44.827Z,46.40
2017-05-11T19:05:13.875Z,46.40
2017-05-11T19:07:43.018Z,47.30
2017-05-11T19:10:12.793Z,47.90
2017-05-11T19:12:41.843Z,48.60
2017-05-11T19:15:11.613Z,48.40
2017-05-11T19:17:40.734Z,48.50
2017-05-11T19:20:10.558Z,48.50
2017-05-11T19:22:40.371Z,48.70
2017-05-11T19:25:10.170Z,49.70
2017-05-11T19:27:39.225Z,50.00
2017-05-11T19:30:08.265Z,50.40
2017-05-11T19:32:38.077Z,51.10
2017-05-11T19:35:07.865Z,51.20
2017-05-11T19:37:36.984Z,51.70
2017-05-11T19:40:06.759Z,51.40
2017-05-11T19:42:35.857Z,52.10
2017-05-11T19:45:05.003Z,52.30
2017-05-11T19:47:34.909Z,53.00
2017-05-11T19:50:04.716Z,52.50
2017-05-11T19:52:34.538Z,53.30
2017-05-11T19:55:04.439Z,54.00
2017-05-11T19:57:33.472Z,53.90
2017-05-11T20:00:02.634Z,54.60
2017-05-11T20:02:31.730Z,54.30
2017-05-11T20:05:01.548Z,54.30
2017-05-11T20:07:31.361Z,54.80
2017-05-11T20:10:01.170Z,55.00
2017-05-11T20:12:30.212Z,55.10
2017-05-11T20:14:59.379Z,55.60
2017-05-11T20:17:29.149Z,55.60
2017-05-11T20:19:58.258Z,56.20
2017-05-11T20:22:28.142Z,56.10
2017-05-11T20:24:57.261Z,56.70
2017-05-11T20:27:26.481Z,56.90
2017-05-11T20:29:55.541Z,56.30
2017-05-11T20:32:24.586Z,56.20
2017-05-11T20:34:53.767Z,56.90
2017-05-11T20:37:23.575Z,56.40
2017-05-11T20:39:53.396Z,57.20
2017-05-11T20:42:23.196Z,57.50
2017-05-11T20:44:53.151Z,57.70
2017-05-11T20:47:22.232Z,57.30
2017-05-11T20:49:51.293Z,57.80
2017-05-11T20:52:20.403Z,58.10
2017-05-11T20:54:50.310Z,58.20
2017-05-11T20:57:20.125Z,58.30
2017-05-11T20:59:49.937Z,58.90
2017-05-11T21:02:19.752Z,58.70
2017-05-11T21:04:49.557Z,58.60
2017-05-11T21:07:19.345Z,59.00
2017-05-11T21:09:48.409Z,58.70
2017-05-11T21:12:17.469Z,59.30
2017-05-11T21:14:46.605Z,59.50
2017-05-11T21:17:16.412Z,59.40
2017-05-11T21:19:45.513Z,59.70
2017-05-11T21:22:15.297Z,59.40
2017-05-11T21:24:44.370Z,60.30
2017-05-11T21:27:13.430Z,59.20
2017-05-11T21:29:43.366Z,59.40
2017-05-11T21:32:12.411Z,59.50
2017-05-11T21:34:41.530Z,60.00
2017-05-11T21:37:11.342Z,59.70
2017-05-11T21:39:41.172Z,59.70
2017-05-11T21:42:10.215Z,60.00
2017-05-11T21:44:39.287Z,59.90
2017-05-11T21:47:08.354Z,59.90
2017-05-11T21:49:37.427Z,60.00
2017-05-11T21:52:06.456Z,60.60
2017-05-11T21:54:35.643Z,60.40
2017-05-11T21:57:04.686Z,60.60
2017-05-11T21:59:33.913Z,62.00
2017-05-11T22:02:02.959Z,62.00
2017-05-11T22:04:32.009Z,62.20
2017-05-11T22:07:01.797Z,61.90
2017-05-11T22:09:30.857Z,61.80
2017-05-11T22:11:59.929Z,61.90
2017-05-11T22:14:28.995Z,62.00
2017-05-11T22:16:58.101Z,61.90
2017-05-11T22:19:27.913Z,63.30
2017-05-11T22:21:57.741Z,62.50
2017-05-11T22:24:27.749Z,62.40
2017-05-11T22:26:56.763Z,63.50
2017-05-11T22:29:26.182Z,64.10
2017-05-11T22:31:55.221Z,64.20
2017-05-11T22:34:24.345Z,63.20
2017-05-11T22:36:54.185Z,63.80
2017-05-11T22:39:23.331Z,63.90
2017-05-11T22:41:52.440Z,64.00
2017-05-11T22:44:21.499Z,64.40
2017-05-11T22:46:50.953Z,64.80
2017-05-11T22:49:21.728Z,65.40
2017-05-11T22:51:50.911Z,66.10
2017-05-11T22:54:19.967Z,66.00
2017-05-11T22:56:49.039Z,65.80
2017-05-11T22:59:18.245Z,66.00
2017-05-11T23:01:47.957Z,66.40
2017-05-11T23:04:17.791Z,67.50
2017-05-11T23:06:46.841Z,67.40
2017-05-11T23:09:15.908Z,67.80
2017-05-11T23:11:45.062Z,67.60
2017-05-11T23:14:14.965Z,68.40
2017-05-11T23:16:44.796Z,68.90
2017-05-11T23:19:14.692Z,69.80
2017-05-11T23:21:43.750Z,69.50
2017-05-11T23:24:12.890Z,70.20
2017-05-11T23:26:42.721Z,70.60
2017-05-11T23:29:11.802Z,69.60
2017-05-11T23:31:41.700Z,70.10
2017-05-11T23:34:10.823Z,69.60
2017-05-11T23:36:39.897Z,70.60
2017-05-11T23:39:09.699Z,70.30
2017-05-11T23:41:38.763Z,71.30
2017-05-11T23:44:07.916Z,71.10
2017-05-11T23:46:36.973Z,71.00
2017-05-11T23:49:06.017Z,71.70
2017-05-11T23:51:35.181Z,71.70
2017-05-11T23:54:04.212Z,71.70
2017-05-11T23:56:33.291Z,71.90
2017-05-11T23:59:03.100Z,71.70
